sensor_id;sensor_type;location;lat;lon;timestamp;pressure;altitude;pressure_sealevel;temperature;humidity
42587;BME280;28216;53.362;-6.288;2022-07-29T00:01:00;101547.13;;;16.45;90.14
42587;BME280;28216;53.362;-6.288;2022-07-29T00:03:26;101551.25;;;16.48;89.65
42587;BME280;28216;53.362;-6.288;2022-07-29T00:05:51;101549.88;;;16.52;89.86
42587;BME280;28216;53.362;-6.288;2022-07-29T00:08:18;101553.19;;;16.54;89.83
42587;BME280;28216;53.362;-6.288;2022-07-29T00:10:44;101552.81;;;16.57;89.75
42587;BME280;28216;53.362;-6.288;2022-07-29T00:13:09;101554.28;;;16.60;89.89
42587;BME280;28216;53.362;-6.288;2022-07-29T00:15:35;101551.28;;;16.63;90.00
42587;BME280;28216;53.362;-6.288;2022-07-29T00:18:00;101553.75;;;16.64;90.26
42587;BME280;28216;53.362;-6.288;2022-07-29T00:20:26;101551.94;;;16.65;90.27
42587;BME280;28216;53.362;-6.288;2022-07-29T00:22:51;101553.44;;;16.67;90.44
42587;BME280;28216;53.362;-6.288;2022-07-29T00:25:18;101555.91;;;16.69;90.51
42587;BME280;28216;53.362;-6.288;2022-07-29T00:27:44;101559.81;;;16.73;90.58
42587;BME280;28216;53.362;-6.288;2022-07-29T00:30:11;101559.47;;;16.76;90.91
42587;BME280;28216;53.362;-6.288;2022-07-29T00:32:37;101560.09;;;16.78;90.80
42587;BME280;28216;53.362;-6.288;2022-07-29T00:35:03;101559.75;;;16.81;91.09
42587;BME280;28216;53.362;-6.288;2022-07-29T00:37:47;101549.97;;;16.81;91.32
42587;BME280;28216;53.362;-6.288;2022-07-29T00:40:13;101547.97;;;16.83;91.54
42587;BME280;28216;53.362;-6.288;2022-07-29T00:42:46;101549.44;;;16.86;91.86
42587;BME280;28216;53.362;-6.288;2022-07-29T00:45:12;101549.44;;;16.86;91.91
42587;BME280;28216;53.362;-6.288;2022-07-29T00:47:38;101543.94;;;16.88;92.15
42587;BME280;28216;53.362;-6.288;2022-07-29T00:50:05;101545.41;;;16.90;92.23
42587;BME280;28216;53.362;-6.288;2022-07-29T00:52:33;101540.94;;;16.91;92.41
42587;BME280;28216;53.362;-6.288;2022-07-29T00:54:58;101541.59;;;16.93;92.31
42587;BME280;28216;53.362;-6.288;2022-07-29T00:57:24;101531.81;;;16.93;92.41
42587;BME280;28216;53.362;-6.288;2022-07-29T00:59:49;101534.28;;;16.95;92.27
42587;BME280;28216;53.362;-6.288;2022-07-29T01:02:15;101533.28;;;16.96;92.21
42587;BME280;28216;53.362;-6.288;2022-07-29T01:04:41;101542.69;;;16.98;92.17
42587;BME280;28216;53.362;-6.288;2022-07-29T01:07:06;101530.25;;;16.99;92.06
42587;BME280;28216;53.362;-6.288;2022-07-29T01:09:33;101530.06;;;17.00;92.04
42587;BME280;28216;53.362;-6.288;2022-07-29T01:11:59;101531.72;;;17.01;92.28
42587;BME280;28216;53.362;-6.288;2022-07-29T01:14:26;101528.88;;;17.03;92.29
42587;BME280;28216;53.362;-6.288;2022-07-29T01:16:59;101522.78;;;17.02;92.49
42587;BME280;28216;53.362;-6.288;2022-07-29T01:19:47;101530.34;;;17.05;92.50
42587;BME280;28216;53.362;-6.288;2022-07-29T01:30:27;101525.22;;;17.04;92.71
42587;BME280;28216;53.362;-6.288;2022-07-29T01:32:58;101529.34;;;17.06;92.82
42587;BME280;28216;53.362;-6.288;2022-07-29T01:35:28;101534.66;;;17.06;92.72
42587;BME280;28216;53.362;-6.288;2022-07-29T01:38:09;101524.88;;;17.07;92.83
42587;BME280;28216;53.362;-6.288;2022-07-29T01:40:42;101535.28;;;17.08;92.75
42587;BME280;28216;53.362;-6.288;2022-07-29T01:43:16;101530.81;;;17.09;92.71
42587;BME280;28216;53.362;-6.288;2022-07-29T01:45:47;101528.16;;;17.09;92.85
42587;BME280;28216;53.362;-6.288;2022-07-29T01:51:14;101530.66;;;17.10;92.43
42587;BME280;28216;53.362;-6.288;2022-07-29T01:53:58;101540.44;;;17.10;92.73
42587;BME280;28216;53.362;-6.288;2022-07-29T01:56:28;101535.13;;;17.10;92.77
42587;BME280;28216;53.362;-6.288;2022-07-29T01:58:58;101536.09;;;17.09;92.76
42587;BME280;28216;53.362;-6.288;2022-07-29T02:01:25;101534.31;;;17.09;92.95
42587;BME280;28216;53.362;-6.288;2022-07-29T02:03:53;101533.47;;;17.09;92.99
42587;BME280;28216;53.362;-6.288;2022-07-29T02:06:22;101531.47;;;17.11;93.05
42587;BME280;28216;53.362;-6.288;2022-07-29T02:08:50;101537.78;;;17.10;93.02
42587;BME280;28216;53.362;-6.288;2022-07-29T02:11:17;101533.31;;;17.10;93.05
42587;BME280;28216;53.362;-6.288;2022-07-29T02:13:44;101531.66;;;17.09;93.04
42587;BME280;28216;53.362;-6.288;2022-07-29T02:16:11;101541.25;;;17.10;92.80
42587;BME280;28216;53.362;-6.288;2022-07-29T02:18:39;101532.31;;;17.11;92.67
42587;BME280;28216;53.362;-6.288;2022-07-29T02:21:06;101533.94;;;17.12;92.58
42587;BME280;28216;53.362;-6.288;2022-07-29T02:23:34;101533.94;;;17.12;92.51
42587;BME280;28216;53.362;-6.288;2022-07-29T02:26:01;101532.13;;;17.13;92.25
42587;BME280;28216;53.362;-6.288;2022-07-29T02:28:29;101526.63;;;17.14;92.36
42587;BME280;28216;53.362;-6.288;2022-07-29T02:30:58;101534.59;;;17.14;91.99
42587;BME280;28216;53.362;-6.288;2022-07-29T02:33:25;101535.41;;;17.15;91.81
42587;BME280;28216;53.362;-6.288;2022-07-29T02:35:51;101531.75;;;17.16;91.66
42587;BME280;28216;53.362;-6.288;2022-07-29T02:38:17;101534.41;;;17.16;91.51
42587;BME280;28216;53.362;-6.288;2022-07-29T02:41:05;101528.47;;;17.14;91.39
42587;BME280;28216;53.362;-6.288;2022-07-29T02:43:34;101529.66;;;17.11;91.35
42587;BME280;28216;53.362;-6.288;2022-07-29T02:46:04;101521.06;;;17.09;91.31
42587;BME280;28216;53.362;-6.288;2022-07-29T02:48:46;101517.56;;;17.09;91.03
42587;BME280;28216;53.362;-6.288;2022-07-29T02:51:23;101517.56;;;17.09;90.92
42587;BME280;28216;53.362;-6.288;2022-07-29T02:53:52;101518.41;;;17.09;90.85
42587;BME280;28216;53.362;-6.288;2022-07-29T02:56:24;101519.06;;;17.11;90.55
42587;BME280;28216;53.362;-6.288;2022-07-29T02:58:55;101518.03;;;17.12;90.36
42587;BME280;28216;53.362;-6.288;2022-07-29T03:01:23;101521.69;;;17.11;90.37
42587;BME280;28216;53.362;-6.288;2022-07-29T03:03:51;101518.22;;;17.11;90.37
42587;BME280;28216;53.362;-6.288;2022-07-29T03:06:19;101527.81;;;17.12;90.18
42587;BME280;28216;53.362;-6.288;2022-07-29T03:08:46;101527.81;;;17.12;90.16
42587;BME280;28216;53.362;-6.288;2022-07-29T03:11:13;101527.81;;;17.12;90.02
42587;BME280;28216;53.362;-6.288;2022-07-29T03:13:39;101528.66;;;17.12;90.16
42587;BME280;28216;53.362;-6.288;2022-07-29T03:16:05;101531.28;;;17.12;90.14
42587;BME280;28216;53.362;-6.288;2022-07-29T03:18:32;101529.47;;;17.13;90.04
42587;BME280;28216;53.362;-6.288;2022-07-29T03:20:58;101532.94;;;17.13;90.07
42587;BME280;28216;53.362;-6.288;2022-07-29T03:23:23;101532.13;;;17.13;89.94
42587;BME280;28216;53.362;-6.288;2022-07-29T03:25:51;101535.59;;;17.13;89.82
42587;BME280;28216;53.362;-6.288;2022-07-29T03:28:16;101535.59;;;17.13;89.73
42587;BME280;28216;53.362;-6.288;2022-07-29T03:30:42;101535.59;;;17.13;89.63
42587;BME280;28216;53.362;-6.288;2022-07-29T03:33:07;101538.41;;;17.12;89.62
42587;BME280;28216;53.362;-6.288;2022-07-29T03:35:33;101543.72;;;17.12;89.60
42587;BME280;28216;53.362;-6.288;2022-07-29T03:37:59;101546.19;;;17.13;89.46
42587;BME280;28216;53.362;-6.288;2022-07-29T03:40:38;101545.38;;;17.13;89.50
42587;BME280;28216;53.362;-6.288;2022-07-29T03:43:08;101544.72;;;17.11;89.54
42587;BME280;28216;53.362;-6.288;2022-07-29T03:45:35;101544.41;;;17.06;89.93
42587;BME280;28216;53.362;-6.288;2022-07-29T03:48:03;101547.63;;;17.01;90.37
42587;BME280;28216;53.362;-6.288;2022-07-29T03:50:32;101550.44;;;17.00;90.84
42587;BME280;28216;53.362;-6.288;2022-07-29T03:52:58;101553.28;;;16.98;91.14
42587;BME280;28216;53.362;-6.288;2022-07-29T03:55:25;101545.88;;;16.94;91.62
42587;BME280;28216;53.362;-6.288;2022-07-29T03:57:51;101553.38;;;16.90;92.28
42587;BME280;28216;53.362;-6.288;2022-07-29T04:00:17;101556.38;;;16.87;92.68
42587;BME280;28216;53.362;-6.288;2022-07-29T04:02:44;101566.16;;;16.87;93.22
42587;BME280;28216;53.362;-6.288;2022-07-29T04:05:13;101561.03;;;16.85;93.77
42587;BME280;28216;53.362;-6.288;2022-07-29T04:07:40;101558.56;;;16.83;94.33
42587;BME280;28216;53.362;-6.288;2022-07-29T04:10:06;101565.22;;;16.79;94.71
42587;BME280;28216;53.362;-6.288;2022-07-29T04:12:32;101558.28;;;16.78;95.39
42587;BME280;28216;53.362;-6.288;2022-07-29T04:14:57;101553.34;;;16.75;95.72
42587;BME280;28216;53.362;-6.288;2022-07-29T04:17:23;101552.53;;;16.75;96.11
42587;BME280;28216;53.362;-6.288;2022-07-29T04:19:48;101553.72;;;16.72;96.48
42587;BME280;28216;53.362;-6.288;2022-07-29T04:22:14;101553.88;;;16.71;97.02
42587;BME280;28216;53.362;-6.288;2022-07-29T04:24:39;101557.34;;;16.71;97.51
42587;BME280;28216;53.362;-6.288;2022-07-29T04:27:04;101568.59;;;16.73;97.47
42587;BME280;28216;53.362;-6.288;2022-07-29T04:29:30;101557.00;;;16.74;97.79
42587;BME280;28216;53.362;-6.288;2022-07-29T04:31:55;101564.94;;;16.74;98.14
42587;BME280;28216;53.362;-6.288;2022-07-29T04:34:21;101564.94;;;16.74;98.50
42587;BME280;28216;53.362;-6.288;2022-07-29T04:36:46;101571.25;;;16.73;98.86
42587;BME280;28216;53.362;-6.288;2022-07-29T04:39:12;101565.13;;;16.73;99.01
42587;BME280;28216;53.362;-6.288;2022-07-29T04:41:37;101565.78;;;16.75;99.23
42587;BME280;28216;53.362;-6.288;2022-07-29T04:44:03;101553.53;;;16.74;99.47
42587;BME280;28216;53.362;-6.288;2022-07-29T04:46:31;101560.66;;;16.73;99.62
42587;BME280;28216;53.362;-6.288;2022-07-29T04:48:56;101558.81;;;16.74;99.39
42587;BME280;28216;53.362;-6.288;2022-07-29T04:51:22;101555.00;;;16.76;99.32
42587;BME280;28216;53.362;-6.288;2022-07-29T04:53:47;101554.00;;;16.77;99.34
42587;BME280;28216;53.362;-6.288;2022-07-29T04:56:13;101557.47;;;16.78;99.53
42587;BME280;28216;53.362;-6.288;2022-07-29T04:58:38;101556.63;;;16.77;99.57
42587;BME280;28216;53.362;-6.288;2022-07-29T05:01:04;101554.00;;;16.77;99.72
42587;BME280;28216;53.362;-6.288;2022-07-29T05:03:29;101548.50;;;16.79;99.86
42587;BME280;28216;53.362;-6.288;2022-07-29T05:05:55;101542.41;;;16.78;99.82
42587;BME280;28216;53.362;-6.288;2022-07-29T05:08:21;101542.56;;;16.77;99.87
42587;BME280;28216;53.362;-6.288;2022-07-29T05:10:46;101540.75;;;16.77;100.00
42587;BME280;28216;53.362;-6.288;2022-07-29T05:13:12;101539.94;;;16.77;100.00
42587;BME280;28216;53.362;-6.288;2022-07-29T05:15:37;101538.91;;;16.78;100.00
42587;BME280;28216;53.362;-6.288;2022-07-29T05:18:03;101546.88;;;16.78;100.00
42587;BME280;28216;53.362;-6.288;2022-07-29T05:20:30;101548.50;;;16.79;100.00
42587;BME280;28216;53.362;-6.288;2022-07-29T05:22:59;101558.94;;;16.80;100.00
42587;BME280;28216;53.362;-6.288;2022-07-29T05:25:25;101543.84;;;16.81;100.00
42587;BME280;28216;53.362;-6.288;2022-07-29T05:27:51;101552.63;;;16.81;100.00
42587;BME280;28216;53.362;-6.288;2022-07-29T05:30:17;101551.63;;;16.82;99.90
42587;BME280;28216;53.362;-6.288;2022-07-29T05:32:43;101552.63;;;16.81;100.00
42587;BME280;28216;53.362;-6.288;2022-07-29T05:35:08;101549.78;;;16.83;100.00
42587;BME280;28216;53.362;-6.288;2022-07-29T05:37:34;101547.78;;;16.85;100.00
42587;BME280;28216;53.362;-6.288;2022-07-29T05:40:00;101551.91;;;16.88;99.69
42587;BME280;28216;53.362;-6.288;2022-07-29T05:42:26;101550.91;;;16.89;99.15
42587;BME280;28216;53.362;-6.288;2022-07-29T05:44:52;101561.94;;;16.92;98.82
42587;BME280;28216;53.362;-6.288;2022-07-29T05:47:17;101554.66;;;16.94;98.49
42587;BME280;28216;53.362;-6.288;2022-07-29T05:49:43;101556.28;;;16.95;98.43
42587;BME280;28216;53.362;-6.288;2022-07-29T05:52:08;101563.25;;;16.96;98.49
42587;BME280;28216;53.362;-6.288;2022-07-29T05:54:34;101567.53;;;16.97;98.43
42587;BME280;28216;53.362;-6.288;2022-07-29T05:57:00;101559.59;;;16.97;98.44
42587;BME280;28216;53.362;-6.288;2022-07-29T05:59:26;101563.06;;;16.98;98.40
42587;BME280;28216;53.362;-6.288;2022-07-29T06:01:51;101554.75;;;17.01;98.23
42587;BME280;28216;53.362;-6.288;2022-07-29T06:04:17;101556.22;;;17.03;97.98
42587;BME280;28216;53.362;-6.288;2022-07-29T06:06:42;101553.19;;;17.06;97.84
42587;BME280;28216;53.362;-6.288;2022-07-29T06:09:08;101556.34;;;17.10;97.96
42587;BME280;28216;53.362;-6.288;2022-07-29T06:11:33;101557.59;;;17.14;97.80
42587;BME280;28216;53.362;-6.288;2022-07-29T06:13:58;101556.41;;;17.17;97.63
42587;BME280;28216;53.362;-6.288;2022-07-29T06:16:24;101555.22;;;17.19;97.50
42587;BME280;28216;53.362;-6.288;2022-07-29T06:18:49;101555.50;;;17.24;97.17
42587;BME280;28216;53.362;-6.288;2022-07-29T06:21:15;101556.78;;;17.28;96.68
42587;BME280;28216;53.362;-6.288;2022-07-29T06:23:40;101555.03;;;17.35;95.97
42587;BME280;28216;53.362;-6.288;2022-07-29T06:26:06;101548.34;;;17.39;95.47
42587;BME280;28216;53.362;-6.288;2022-07-29T06:28:32;101555.75;;;17.44;95.26
42587;BME280;28216;53.362;-6.288;2022-07-29T06:30:58;101555.22;;;17.48;94.40
42587;BME280;28216;53.362;-6.288;2022-07-29T06:33:24;101560.13;;;17.52;93.89
42587;BME280;28216;53.362;-6.288;2022-07-29T06:35:49;101566.91;;;17.54;93.33
42587;BME280;28216;53.362;-6.288;2022-07-29T06:38:15;101565.72;;;17.57;93.02
42587;BME280;28216;53.362;-6.288;2022-07-29T06:40:45;101573.28;;;17.60;92.96
42587;BME280;28216;53.362;-6.288;2022-07-29T06:43:27;101570.91;;;17.65;93.19
42587;BME280;28216;53.362;-6.288;2022-07-29T06:45:57;101569.56;;;17.69;93.22
42587;BME280;28216;53.362;-6.288;2022-07-29T06:48:22;101565.53;;;17.73;92.58
42587;BME280;28216;53.362;-6.288;2022-07-29T06:50:48;101571.09;;;17.78;92.34
42587;BME280;28216;53.362;-6.288;2022-07-29T06:53:13;101575.84;;;17.83;92.19
42587;BME280;28216;53.362;-6.288;2022-07-29T06:55:38;101570.63;;;17.89;91.81
42587;BME280;28216;53.362;-6.288;2022-07-29T06:58:04;101572.16;;;17.98;91.27
42587;BME280;28216;53.362;-6.288;2022-07-29T07:00:29;101573.06;;;18.05;90.53
42587;BME280;28216;53.362;-6.288;2022-07-29T07:02:55;101576.78;;;18.11;90.06
42587;BME280;28216;53.362;-6.288;2022-07-29T07:05:21;101570.72;;;18.17;89.81
42587;BME280;28216;53.362;-6.288;2022-07-29T07:07:46;101578.56;;;18.25;89.44
42587;BME280;28216;53.362;-6.288;2022-07-29T07:10:11;101574.31;;;18.31;88.98
42587;BME280;28216;53.362;-6.288;2022-07-29T07:12:37;101574.19;;;18.39;88.41
42587;BME280;28216;53.362;-6.288;2022-07-29T07:15:03;101569.13;;;18.44;87.76
42587;BME280;28216;53.362;-6.288;2022-07-29T07:17:28;101570.38;;;18.48;87.28
42587;BME280;28216;53.362;-6.288;2022-07-29T07:19:54;101574.94;;;18.54;86.62
42587;BME280;28216;53.362;-6.288;2022-07-29T07:22:19;101579.69;;;18.59;86.04
42587;BME280;28216;53.362;-6.288;2022-07-29T07:24:44;101573.44;;;18.66;85.60
42587;BME280;28216;53.362;-6.288;2022-07-29T07:27:10;101579.00;;;18.71;84.91
42587;BME280;28216;53.362;-6.288;2022-07-29T07:29:36;101573.75;;;18.78;84.40
42587;BME280;28216;53.362;-6.288;2022-07-29T07:32:02;101572.16;;;18.84;84.32
42587;BME280;28216;53.362;-6.288;2022-07-29T07:34:31;101581.81;;;18.91;83.69
42587;BME280;28216;53.362;-6.288;2022-07-29T07:36:57;101582.28;;;19.01;82.70
42587;BME280;28216;53.362;-6.288;2022-07-29T07:39:23;101583.16;;;19.09;81.92
42587;BME280;28216;53.362;-6.288;2022-07-29T07:41:52;101586.84;;;19.14;81.59
42587;BME280;28216;53.362;-6.288;2022-07-29T07:44:18;101584.25;;;19.21;81.55
42587;BME280;28216;53.362;-6.288;2022-07-29T07:46:43;101587.56;;;19.29;80.98
42587;BME280;28216;53.362;-6.288;2022-07-29T07:49:10;101589.47;;;19.35;80.23
42587;BME280;28216;53.362;-6.288;2022-07-29T07:51:36;101593.75;;;19.36;79.37
42587;BME280;28216;53.362;-6.288;2022-07-29T07:54:02;101605.03;;;19.39;78.84
42587;BME280;28216;53.362;-6.288;2022-07-29T07:56:28;101594.63;;;19.44;78.11
42587;BME280;28216;53.362;-6.288;2022-07-29T07:58:53;101598.13;;;19.51;77.43
42587;BME280;28216;53.362;-6.288;2022-07-29T08:01:19;101595.72;;;19.56;76.87
42587;BME280;28216;53.362;-6.288;2022-07-29T08:03:48;101594.53;;;19.65;76.32
42587;BME280;28216;53.362;-6.288;2022-07-29T08:06:14;101602.97;;;19.75;76.05
42587;BME280;28216;53.362;-6.288;2022-07-29T08:08:39;101602.16;;;19.81;75.72
42587;BME280;28216;53.362;-6.288;2022-07-29T08:11:05;101603.41;;;19.85;75.40
42587;BME280;28216;53.362;-6.288;2022-07-29T08:13:31;101595.84;;;19.89;75.27
42587;BME280;28216;53.362;-6.288;2022-07-29T08:15:57;101602.00;;;19.89;74.90
42587;BME280;28216;53.362;-6.288;2022-07-29T08:18:28;101598.50;;;19.89;74.89
42587;BME280;28216;53.362;-6.288;2022-07-29T08:20:54;101588.28;;;19.92;74.91
42587;BME280;28216;53.362;-6.288;2022-07-29T08:23:20;101587.69;;;19.97;74.45
42587;BME280;28216;53.362;-6.288;2022-07-29T08:25:46;101591.38;;;19.96;74.61
42587;BME280;28216;53.362;-6.288;2022-07-29T08:28:11;101584.63;;;20.00;75.02
42587;BME280;28216;53.362;-6.288;2022-07-29T08:30:39;101577.25;;;20.02;74.83
42587;BME280;28216;53.362;-6.288;2022-07-29T08:33:04;101574.84;;;20.14;74.66
42587;BME280;28216;53.362;-6.288;2022-07-29T08:35:30;101572.41;;;20.32;73.99
42587;BME280;28216;53.362;-6.288;2022-07-29T08:37:55;101573.06;;;20.47;73.85
42587;BME280;28216;53.362;-6.288;2022-07-29T08:40:22;101574.91;;;20.73;73.24
42587;BME280;28216;53.362;-6.288;2022-07-29T08:42:49;101574.28;;;20.98;72.44
42587;BME280;28216;53.362;-6.288;2022-07-29T08:45:15;101560.91;;;21.17;72.01
42587;BME280;28216;53.362;-6.288;2022-07-29T08:47:40;101551.44;;;21.35;71.02
42587;BME280;28216;53.362;-6.288;2022-07-29T08:50:08;101548.28;;;21.58;69.79
42587;BME280;28216;53.362;-6.288;2022-07-29T08:52:36;101553.63;;;21.96;68.50
42587;BME280;28216;53.362;-6.288;2022-07-29T08:55:03;101540.69;;;22.31;67.32
42587;BME280;28216;53.362;-6.288;2022-07-29T08:57:29;101547.81;;;22.62;66.27
42587;BME280;28216;53.362;-6.288;2022-07-29T08:59:57;101548.03;;;22.85;65.60
42587;BME280;28216;53.362;-6.288;2022-07-29T09:02:28;101556.47;;;23.07;64.25
42587;BME280;28216;53.362;-6.288;2022-07-29T09:04:56;101556.03;;;23.28;62.81
42587;BME280;28216;53.362;-6.288;2022-07-29T09:07:23;101546.19;;;23.40;61.75
42587;BME280;28216;53.362;-6.288;2022-07-29T09:09:49;101541.44;;;23.61;60.83
42587;BME280;28216;53.362;-6.288;2022-07-29T09:12:15;101547.72;;;23.85;59.92
42587;BME280;28216;53.362;-6.288;2022-07-29T09:14:41;101548.34;;;23.98;59.52
42587;BME280;28216;53.362;-6.288;2022-07-29T09:17:08;101548.03;;;24.06;58.78
42587;BME280;28216;53.362;-6.288;2022-07-29T09:19:35;101547.22;;;24.06;58.62
42587;BME280;28216;53.362;-6.288;2022-07-29T09:22:03;101546.00;;;23.90;58.27
42587;BME280;28216;53.362;-6.288;2022-07-29T09:24:39;101541.84;;;23.76;57.48
42587;BME280;28216;53.362;-6.288;2022-07-29T09:27:19;101551.69;;;23.64;57.75
42587;BME280;28216;53.362;-6.288;2022-07-29T09:29:58;101542.63;;;23.65;57.08
42587;BME280;28216;53.362;-6.288;2022-07-29T09:32:24;101552.03;;;23.86;57.03
42587;BME280;28216;53.362;-6.288;2022-07-29T09:34:52;101556.84;;;23.95;56.10
42587;BME280;28216;53.362;-6.288;2022-07-29T09:37:36;101548.25;;;24.05;55.39
42587;BME280;28216;53.362;-6.288;2022-07-29T09:40:11;101549.38;;;24.27;54.21
42587;BME280;28216;53.362;-6.288;2022-07-29T09:42:37;101544.88;;;24.63;53.50
42587;BME280;28216;53.362;-6.288;2022-07-29T09:45:02;101546.97;;;24.84;52.48
42587;BME280;28216;53.362;-6.288;2022-07-29T09:47:44;101546.50;;;24.87;51.48
42587;BME280;28216;53.362;-6.288;2022-07-29T09:50:10;101548.72;;;24.90;51.74
42587;BME280;28216;53.362;-6.288;2022-07-29T09:52:48;101547.19;;;24.94;51.02
42587;BME280;28216;53.362;-6.288;2022-07-29T09:55:15;101549.53;;;24.91;51.62
42587;BME280;28216;53.362;-6.288;2022-07-29T09:57:41;101551.28;;;24.74;51.65
42587;BME280;28216;53.362;-6.288;2022-07-29T10:00:08;101546.59;;;24.46;52.09
42587;BME280;28216;53.362;-6.288;2022-07-29T10:02:38;101550.13;;;24.16;52.08
42587;BME280;28216;53.362;-6.288;2022-07-29T10:05:06;101546.09;;;23.84;53.17
42587;BME280;28216;53.362;-6.288;2022-07-29T10:10:28;101535.97;;;23.19;54.59
42587;BME280;28216;53.362;-6.288;2022-07-29T10:12:58;101537.41;;;22.97;55.21
42587;BME280;28216;53.362;-6.288;2022-07-29T10:15:26;101533.34;;;22.94;55.64
42587;BME280;28216;53.362;-6.288;2022-07-29T10:17:54;101541.25;;;23.07;55.63
42587;BME280;28216;53.362;-6.288;2022-07-29T10:20:21;101541.53;;;23.18;56.09
42587;BME280;28216;53.362;-6.288;2022-07-29T10:22:48;101540.88;;;23.22;56.22
42587;BME280;28216;53.362;-6.288;2022-07-29T10:25:15;101543.03;;;23.13;56.26
42587;BME280;28216;53.362;-6.288;2022-07-29T10:27:42;101543.38;;;22.99;56.96
42587;BME280;28216;53.362;-6.288;2022-07-29T10:30:08;101547.16;;;22.91;57.36
42587;BME280;28216;53.362;-6.288;2022-07-29T10:32:51;101537.06;;;22.68;58.02
42587;BME280;28216;53.362;-6.288;2022-07-29T10:41:32;101537.19;;;22.30;59.18
42587;BME280;28216;53.362;-6.288;2022-07-29T10:44:05;101552.00;;;22.26;59.39
42587;BME280;28216;53.362;-6.288;2022-07-29T10:46:39;101555.16;;;22.16;59.56
42587;BME280;28216;53.362;-6.288;2022-07-29T10:49:22;101560.97;;;22.07;60.40
42587;BME280;28216;53.362;-6.288;2022-07-29T10:51:57;101553.19;;;21.99;60.73
42587;BME280;28216;53.362;-6.288;2022-07-29T10:57:30;101540.56;;;21.81;62.20
42587;BME280;28216;53.362;-6.288;2022-07-29T11:05:18;101550.22;;;21.82;62.05
42587;BME280;28216;53.362;-6.288;2022-07-29T11:10:37;101547.78;;;21.74;62.90
42587;BME280;28216;53.362;-6.288;2022-07-29T11:13:03;101541.84;;;21.72;63.25
42587;BME280;28216;53.362;-6.288;2022-07-29T11:15:28;101544.53;;;21.72;63.73
42587;BME280;28216;53.362;-6.288;2022-07-29T11:20:44;101548.06;;;21.59;64.83
42587;BME280;28216;53.362;-6.288;2022-07-29T11:23:26;101542.75;;;21.52;65.32
42587;BME280;28216;53.362;-6.288;2022-07-29T11:31:42;101552.66;;;21.39;65.59
42587;BME280;28216;53.362;-6.288;2022-07-29T11:34:21;101549.59;;;21.35;65.92
42587;BME280;28216;53.362;-6.288;2022-07-29T11:48:51;101530.34;;;21.71;65.57
42587;BME280;28216;53.362;-6.288;2022-07-29T11:51:17;101529.09;;;21.74;65.19
42587;BME280;28216;53.362;-6.288;2022-07-29T11:53:46;101526.22;;;21.75;65.26
42587;BME280;28216;53.362;-6.288;2022-07-29T11:56:14;101527.84;;;21.76;64.80
42587;BME280;28216;53.362;-6.288;2022-07-29T11:59:05;101525.66;;;21.67;64.88
42587;BME280;28216;53.362;-6.288;2022-07-29T12:01:31;101525.69;;;21.60;64.69
42587;BME280;28216;53.362;-6.288;2022-07-29T12:04:07;101527.97;;;21.50;65.13
42587;BME280;28216;53.362;-6.288;2022-07-29T12:06:36;101526.38;;;21.42;65.52
42587;BME280;28216;53.362;-6.288;2022-07-29T12:09:08;101532.16;;;21.33;65.37
42587;BME280;28216;53.362;-6.288;2022-07-29T12:11:34;101522.75;;;21.23;65.81
42587;BME280;28216;53.362;-6.288;2022-07-29T12:14:00;101528.91;;;21.17;66.32
42587;BME280;28216;53.362;-6.288;2022-07-29T12:16:36;101536.72;;;21.12;66.38
42587;BME280;28216;53.362;-6.288;2022-07-29T12:19:03;101533.22;;;21.12;66.38
42587;BME280;28216;53.362;-6.288;2022-07-29T12:21:51;101527.47;;;21.15;66.05
42587;BME280;28216;53.362;-6.288;2022-07-29T12:24:15;101526.03;;;21.25;65.87
42587;BME280;28216;53.362;-6.288;2022-07-29T12:26:58;101523.94;;;21.34;65.65
42587;BME280;28216;53.362;-6.288;2022-07-29T12:29:24;101530.03;;;21.48;65.18
42587;BME280;28216;53.362;-6.288;2022-07-29T12:31:53;101532.06;;;21.59;64.64
42587;BME280;28216;53.362;-6.288;2022-07-29T12:34:24;101532.47;;;21.63;64.60
42587;BME280;28216;53.362;-6.288;2022-07-29T12:36:52;101526.88;;;21.71;64.69
42587;BME280;28216;53.362;-6.288;2022-07-29T12:39:20;101525.31;;;21.88;64.17
42587;BME280;28216;53.362;-6.288;2022-07-29T12:41:46;101519.72;;;22.03;63.57
42587;BME280;28216;53.362;-6.288;2022-07-29T12:44:11;101515.31;;;22.15;63.35
42587;BME280;28216;53.362;-6.288;2022-07-29T12:46:37;101511.50;;;22.29;62.99
42587;BME280;28216;53.362;-6.288;2022-07-29T12:49:03;101510.16;;;22.45;62.75
42587;BME280;28216;53.362;-6.288;2022-07-29T12:54:11;101508.31;;;22.64;63.06
42587;BME280;28216;53.362;-6.288;2022-07-29T12:56:39;101500.84;;;22.72;62.83
42587;BME280;28216;53.362;-6.288;2022-07-29T12:59:12;101497.28;;;22.78;61.71
42587;BME280;28216;53.362;-6.288;2022-07-29T13:01:38;101508.09;;;22.90;61.16
42587;BME280;28216;53.362;-6.288;2022-07-29T13:04:04;101506.53;;;23.01;61.01
42587;BME280;28216;53.362;-6.288;2022-07-29T13:09:12;101504.38;;;23.28;59.88
42587;BME280;28216;53.362;-6.288;2022-07-29T13:11:46;101507.69;;;23.41;59.07
42587;BME280;28216;53.362;-6.288;2022-07-29T13:14:58;101501.81;;;23.51;58.56
42587;BME280;28216;53.362;-6.288;2022-07-29T13:19:39;101504.81;;;23.73;57.49
42587;BME280;28216;53.362;-6.288;2022-07-29T13:22:06;101504.41;;;23.88;57.46
42587;BME280;28216;53.362;-6.288;2022-07-29T13:24:33;101501.41;;;23.96;56.62
42587;BME280;28216;53.362;-6.288;2022-07-29T13:26:59;101503.75;;;24.04;56.06
42587;BME280;28216;53.362;-6.288;2022-07-29T13:29:25;101496.19;;;24.13;56.17
42587;BME280;28216;53.362;-6.288;2022-07-29T13:31:52;101502.72;;;24.17;55.30
42587;BME280;28216;53.362;-6.288;2022-07-29T13:34:18;101498.78;;;24.19;54.71
42587;BME280;28216;53.362;-6.288;2022-07-29T13:36:46;101498.31;;;24.22;54.50
42587;BME280;28216;53.362;-6.288;2022-07-29T13:39:12;101493.09;;;24.27;54.35
42587;BME280;28216;53.362;-6.288;2022-07-29T13:41:40;101495.06;;;24.32;54.18
42587;BME280;28216;53.362;-6.288;2022-07-29T13:47:27;101483.19;;;24.39;53.18